Time;durP1;ratioP1;P1;durP2;ratioP2;P2;SDS_P1;SDS_P2;PMS_P1;PMS_P2;Temp;Humidity;BMP_temperature;BMP_pressure;BME280_temperature;BME280_humidity;BME280_pressure;Samples;Min_cycle;Max_cycle;Signal;HPM_P1;HPM_P2
2023/08/02 00:02:07;;;;;;;3.00;2.85;;;;;;;;;;6075170;29;20241;-79
2023/08/02 00:05:11;;;;;;;2.65;2.55;;;;;;;;;;6084140;29;20241;-80
2023/08/02 00:08:15;;;;;;;2.65;2.55;;;;;;;;;;6072666;29;20317;-79
2023/08/02 00:11:21;;;;;;;2.38;2.38;;;;;;;;;;6074034;29;20241;-79
2023/08/02 00:14:25;;;;;;;2.40;2.40;;;;;;;;;;6080952;29;20237;-79
2023/08/02 00:17:28;;;;;;;2.92;2.42;;;;;;;;;;6096924;29;20253;-79
2023/08/02 00:20:32;;;;;;;2.70;2.60;;;;;;;;;;6096663;29;20245;-79
2023/08/02 00:23:36;;;;;;;2.88;2.67;;;;;;;;;;6096943;29;20262;-80
2023/08/02 00:26:42;;;;;;;3.85;3.70;;;;;;;;;;6096466;29;20292;-79
2023/08/02 00:29:46;;;;;;;4.03;3.83;;;;;;;;;;6095505;29;20292;-79
2023/08/02 00:32:51;;;;;;;3.88;3.67;;;;;;;;;;6095002;29;20280;-79
2023/08/02 00:35:56;;;;;;;3.80;3.55;;;;;;;;;;6096950;29;20245;-79
2023/08/02 00:39:00;;;;;;;4.00;3.53;;;;;;;;;;6094936;29;20272;-79
2023/08/02 00:42:07;;;;;;;3.50;3.30;;;;;;;;;;6096497;29;20265;-80
2023/08/02 00:45:11;;;;;;;3.92;3.63;;;;;;;;;;6099503;29;20240;-79
2023/08/02 00:48:15;;;;;;;3.53;3.42;;;;;;;;;;6099401;29;20269;-80
2023/08/02 00:51:19;;;;;;;4.20;3.88;;;;;;;;;;6099750;29;20237;-80
2023/08/02 00:54:23;;;;;;;3.80;3.40;;;;;;;;;;6098959;29;20244;-79
2023/08/02 00:57:30;;;;;;;3.60;3.50;;;;;;;;;;6099007;29;20272;-79
2023/08/02 01:00:34;;;;;;;3.78;3.53;;;;;;;;;;6101426;29;20249;-78
2023/08/02 01:03:39;;;;;;;3.83;3.50;;;;;;;;;;6100043;29;20261;-80
2023/08/02 01:06:46;;;;;;;3.25;3.15;;;;;;;;;;6092604;29;20296;-79
2023/08/02 01:09:54;;;;;;;2.67;2.58;;;;;;;;;;6077281;29;20242;-79
2023/08/02 01:13:03;;;;;;;2.92;2.83;;;;;;;;;;6091955;29;20282;-79
2023/08/02 01:16:08;;;;;;;3.03;2.83;;;;;;;;;;6056362;29;20262;-80
2023/08/02 01:19:12;;;;;;;3.53;2.92;;;;;;;;;;6064378;29;20277;-79
2023/08/02 01:22:18;;;;;;;2.80;2.60;;;;;;;;;;6049218;29;20271;-80
2023/08/02 01:25:22;;;;;;;2.50;2.50;;;;;;;;;;6049613;29;20258;-79
2023/08/02 01:28:27;;;;;;;2.53;2.53;;;;;;;;;;6053967;29;20290;-79
2023/08/02 01:31:32;;;;;;;3.10;2.88;;;;;;;;;;6054600;29;20541;-79
2023/08/02 01:34:37;;;;;;;2.58;2.47;;;;;;;;;;6048716;29;20267;-79
2023/08/02 01:37:43;;;;;;;2.13;2.13;;;;;;;;;;6048659;29;20246;-79
2023/08/02 01:40:47;;;;;;;2.33;2.22;;;;;;;;;;6048358;29;20534;-79
2023/08/02 01:43:52;;;;;;;2.47;2.47;;;;;;;;;;6050000;29;20258;-80
2023/08/02 01:46:56;;;;;;;2.45;2.45;;;;;;;;;;6050418;29;20270;-80
2023/08/02 01:50:00;;;;;;;2.55;2.20;;;;;;;;;;6065208;29;20282;-80
2023/08/02 01:53:07;;;;;;;2.50;2.40;;;;;;;;;;6051039;29;20244;-80
2023/08/02 01:56:11;;;;;;;2.70;2.60;;;;;;;;;;6052068;29;20247;-80
2023/08/02 01:59:15;;;;;;;2.60;2.40;;;;;;;;;;6064991;29;20554;-79
2023/08/02 02:02:19;;;;;;;2.53;2.33;;;;;;;;;;6065161;29;20286;-79
2023/08/02 02:05:23;;;;;;;2.65;2.45;;;;;;;;;;6069063;29;20308;-79
2023/08/02 02:08:28;;;;;;;2.92;2.38;;;;;;;;;;6073835;29;20269;-79
2023/08/02 02:11:32;;;;;;;2.45;2.38;;;;;;;;;;6073573;29;20439;-79
2023/08/02 02:14:36;;;;;;;2.63;2.53;;;;;;;;;;6082751;29;20240;-80
2023/08/02 02:17:40;;;;;;;2.50;2.40;;;;;;;;;;6096709;29;20245;-79
2023/08/02 02:20:44;;;;;;;2.42;2.35;;;;;;;;;;6097239;29;20244;-80
2023/08/02 02:23:49;;;;;;;2.60;2.50;;;;;;;;;;6095991;29;20272;-80
2023/08/02 02:26:54;;;;;;;2.45;2.25;;;;;;;;;;6096099;29;20261;-78
2023/08/02 02:29:58;;;;;;;2.30;2.30;;;;;;;;;;6095346;29;20260;-80
2023/08/02 02:33:03;;;;;;;2.38;2.38;;;;;;;;;;6096272;29;20249;-78
2023/08/02 02:36:07;;;;;;;2.50;2.40;;;;;;;;;;6094436;29;20245;-81
2023/08/02 02:39:12;;;;;;;2.20;2.20;;;;;;;;;;6094387;29;20249;-80
2023/08/02 02:42:16;;;;;;;2.63;2.50;;;;;;;;;;6094588;29;20241;-79
2023/08/02 02:45:20;;;;;;;2.08;2.08;;;;;;;;;;6093947;29;20249;-80
2023/08/02 02:48:25;;;;;;;2.40;2.22;;;;;;;;;;6095534;29;20275;-80
2023/08/02 02:51:30;;;;;;;2.55;2.45;;;;;;;;;;6078158;29;20285;-81
2023/08/02 02:54:36;;;;;;;2.33;2.33;;;;;;;;;;6105927;29;20238;-78
2023/08/02 02:57:39;;;;;;;2.42;2.42;;;;;;;;;;6102904;29;20249;-80
2023/08/02 03:00:44;;;;;;;2.38;2.28;;;;;;;;;;6098896;29;20249;-79
2023/08/02 03:03:48;;;;;;;2.40;2.30;;;;;;;;;;6099578;29;20257;-79
2023/08/02 03:06:52;;;;;;;2.38;2.28;;;;;;;;;;6099865;29;20455;-80
2023/08/02 03:09:57;;;;;;;2.10;2.10;;;;;;;;;;6103201;29;20297;-80
2023/08/02 03:13:01;;;;;;;2.00;2.00;;;;;;;;;;6100787;29;20244;-81
2023/08/02 03:16:05;;;;;;;2.15;2.15;;;;;;;;;;6100963;29;20254;-80
2023/08/02 03:19:09;;;;;;;2.15;1.98;;;;;;;;;;6100853;29;20245;-80
2023/08/02 03:22:13;;;;;;;2.30;2.30;;;;;;;;;;6099498;29;20482;-80
2023/08/02 03:25:18;;;;;;;2.40;2.20;;;;;;;;;;6098707;29;20240;-80
2023/08/02 03:28:22;;;;;;;2.28;2.28;;;;;;;;;;6099014;29;20446;-80
2023/08/02 03:31:26;;;;;;;2.25;2.25;;;;;;;;;;6098230;29;20241;-80
2023/08/02 03:34:30;;;;;;;2.38;2.38;;;;;;;;;;6098801;29;20253;-80
2023/08/02 03:37:34;;;;;;;2.35;2.25;;;;;;;;;;6099831;29;20241;-80
2023/08/02 03:40:39;;;;;;;2.20;2.20;;;;;;;;;;6099808;29;20513;-80
2023/08/02 03:43:43;;;;;;;2.85;2.72;;;;;;;;;;6098876;29;20237;-79
2023/08/02 03:46:47;;;;;;;2.40;2.40;;;;;;;;;;6099573;29;20539;-79
2023/08/02 03:49:50;;;;;;;2.50;2.50;;;;;;;;;;6100988;29;20274;-78
2023/08/02 03:52:55;;;;;;;2.25;2.13;;;;;;;;;;6099576;29;20272;-79
2023/08/02 03:56:01;;;;;;;2.45;2.35;;;;;;;;;;6100910;29;20240;-80
2023/08/02 03:59:04;;;;;;;3.10;2.90;;;;;;;;;;6100092;29;20250;-78
2023/08/02 04:02:09;;;;;;;2.78;2.65;;;;;;;;;;6099381;29;20245;-80
2023/08/02 04:05:13;;;;;;;4.15;2.60;;;;;;;;;;6099179;29;20313;-79
2023/08/02 04:08:17;;;;;;;3.05;2.80;;;;;;;;;;6100496;29;20272;-77
2023/08/02 04:11:22;;;;;;;2.58;2.35;;;;;;;;;;6100366;29;20249;-80
2023/08/02 04:14:26;;;;;;;2.72;2.63;;;;;;;;;;6090854;29;20302;-80
2023/08/02 04:17:30;;;;;;;2.88;2.78;;;;;;;;;;6078773;29;20471;-79
2023/08/02 04:20:38;;;;;;;2.65;2.65;;;;;;;;;;6067807;29;20286;-78
2023/08/02 04:23:42;;;;;;;3.17;3.00;;;;;;;;;;6075890;29;20250;-79
2023/08/02 04:26:47;;;;;;;3.38;3.08;;;;;;;;;;6076087;29;20257;-79
2023/08/02 04:29:51;;;;;;;3.50;3.30;;;;;;;;;;6074244;29;20269;-79
2023/08/02 04:32:56;;;;;;;3.53;3.33;;;;;;;;;;6074657;29;20546;-79
2023/08/02 04:36:00;;;;;;;2.95;2.85;;;;;;;;;;6075782;29;20249;-78
2023/08/02 04:39:06;;;;;;;2.67;2.67;;;;;;;;;;6074386;29;20286;-80
2023/08/02 04:42:12;;;;;;;2.53;2.42;;;;;;;;;;6075722;29;20237;-79
2023/08/02 04:45:16;;;;;;;3.17;2.80;;;;;;;;;;6075225;29;20246;-79
2023/08/02 04:48:20;;;;;;;4.53;3.35;;;;;;;;;;6074766;29;20550;-80
2023/08/02 04:51:23;;;;;;;3.47;2.88;;;;;;;;;;6074209;29;20238;-80
2023/08/02 04:54:27;;;;;;;3.03;2.88;;;;;;;;;;6074047;29;20269;-79
2023/08/02 04:57:33;;;;;;;3.20;2.95;;;;;;;;;;6074272;29;20254;-79
2023/08/02 05:00:37;;;;;;;3.10;2.97;;;;;;;;;;6072954;29;20464;-79
2023/08/02 05:03:43;;;;;;;3.00;2.83;;;;;;;;;;6075281;29;20242;-79
2023/08/02 05:06:47;;;;;;;3.10;2.90;;;;;;;;;;6075009;29;20553;-79
2023/08/02 05:09:51;;;;;;;3.17;2.67;;;;;;;;;;6073763;29;20265;-78
2023/08/02 05:12:56;;;;;;;3.03;2.83;;;;;;;;;;6074574;29;20231;-80
2023/08/02 05:16:00;;;;;;;3.67;2.75;;;;;;;;;;6091879;29;20273;-80
2023/08/02 05:19:04;;;;;;;3.35;3.20;;;;;;;;;;6097010;29;20249;-79
2023/08/02 05:22:08;;;;;;;3.58;3.22;;;;;;;;;;6097532;29;20246;-79
2023/08/02 05:25:12;;;;;;;3.55;3.45;;;;;;;;;;6097339;29;20246;-80
2023/08/02 05:28:17;;;;;;;3.40;3.20;;;;;;;;;;6097967;29;20253;-79
2023/08/02 05:31:21;;;;;;;3.30;3.22;;;;;;;;;;6096951;29;20264;-80
2023/08/02 05:34:25;;;;;;;3.33;3.00;;;;;;;;;;6097472;29;20498;-80
2023/08/02 05:37:30;;;;;;;3.97;3.30;;;;;;;;;;6097656;29;20242;-80
2023/08/02 05:40:34;;;;;;;3.25;3.05;;;;;;;;;;6097323;29;20229;-79
2023/08/02 05:43:42;;;;;;;3.28;3.05;;;;;;;;;;6097370;29;20248;-79
2023/08/02 05:46:46;;;;;;;2.78;2.47;;;;;;;;;;6105199;29;20234;-80
2023/08/02 05:49:50;;;;;;;2.80;2.70;;;;;;;;;;6095893;29;20268;-79
2023/08/02 05:52:54;;;;;;;2.25;2.03;;;;;;;;;;6093993;29;20419;-78
2023/08/02 05:55:58;;;;;;;2.38;2.22;;;;;;;;;;6076971;29;20284;-78
2023/08/02 05:59:03;;;;;;;2.42;2.30;;;;;;;;;;6092059;29;20484;-78
2023/08/02 06:02:08;;;;;;;2.00;1.90;;;;;;;;;;6093532;29;20245;-78
2023/08/02 06:05:12;;;;;;;2.50;2.40;;;;;;;;;;6093038;29;20295;-79
2023/08/02 06:08:16;;;;;;;3.17;2.50;;;;;;;;;;6092892;29;20244;-79
2023/08/02 06:11:20;;;;;;;2.40;2.30;;;;;;;;;;6092800;29;20294;-79
2023/08/02 06:14:25;;;;;;;2.38;2.28;;;;;;;;;;6093290;29;20236;-79
2023/08/02 06:17:30;;;;;;;2.30;2.20;;;;;;;;;;6093237;29;20241;-79
2023/08/02 06:20:34;;;;;;;2.83;2.35;;;;;;;;;;6092858;29;20248;-79
2023/08/02 06:23:38;;;;;;;2.05;1.95;;;;;;;;;;6092854;29;20403;-79
2023/08/02 06:26:42;;;;;;;2.08;2.08;;;;;;;;;;6092908;29;20533;-80
2023/08/02 06:29:50;;;;;;;2.25;2.13;;;;;;;;;;6092725;29;20277;-79
2023/08/02 06:32:53;;;;;;;3.00;2.45;;;;;;;;;;6092817;29;20293;-80
2023/08/02 06:35:57;;;;;;;2.13;2.03;;;;;;;;;;6092769;29;20246;-80
2023/08/02 06:39:01;;;;;;;2.15;2.05;;;;;;;;;;6095383;29;20248;-79
2023/08/02 06:42:05;;;;;;;2.20;2.10;;;;;;;;;;6092540;29;20253;-78
2023/08/02 06:45:11;;;;;;;2.35;2.15;;;;;;;;;;6092482;29;20249;-79
2023/08/02 06:48:19;;;;;;;2.38;2.30;;;;;;;;;;6092602;29;20477;-80
2023/08/02 06:51:23;;;;;;;2.47;2.05;;;;;;;;;;6094618;29;20289;-78
2023/08/02 06:54:26;;;;;;;2.90;2.30;;;;;;;;;;6094021;29;20245;-78
2023/08/02 06:57:31;;;;;;;2.67;2.00;;;;;;;;;;6092659;29;20245;-80
2023/08/02 07:00:36;;;;;;;3.33;2.30;;;;;;;;;;6092681;29;20241;-79
2023/08/02 07:03:40;;;;;;;1.92;1.92;;;;;;;;;;6092426;29;20426;-79
2023/08/02 07:06:44;;;;;;;3.55;2.50;;;;;;;;;;6092378;29;20289;-79
2023/08/02 07:09:49;;;;;;;1.98;1.88;;;;;;;;;;6095358;29;20240;-80
2023/08/02 07:12:53;;;;;;;2.30;2.10;;;;;;;;;;6098989;29;20241;-79
2023/08/02 07:15:58;;;;;;;2.83;2.63;;;;;;;;;;6092499;29;20245;-80
2023/08/02 07:19:02;;;;;;;2.85;2.33;;;;;;;;;;6092368;29;20242;-79
2023/08/02 07:22:07;;;;;;;1.77;1.77;;;;;;;;;;6092592;29;20537;-79
2023/08/02 07:25:11;;;;;;;1.88;1.88;;;;;;;;;;6091869;29;20245;-80
2023/08/02 07:28:15;;;;;;;1.92;1.83;;;;;;;;;;6092518;29;20529;-79
2023/08/02 07:31:20;;;;;;;1.77;1.67;;;;;;;;;;6092316;29;20268;-80
2023/08/02 07:34:24;;;;;;;3.00;2.67;;;;;;;;;;6092120;29;20538;-80
2023/08/02 07:37:27;;;;;;;2.00;1.90;;;;;;;;;;6092985;29;20281;-80
2023/08/02 07:40:31;;;;;;;2.65;2.35;;;;;;;;;;6096272;29;20245;-80
2023/08/02 07:43:35;;;;;;;3.55;2.00;;;;;;;;;;6096028;29;20241;-80
2023/08/02 07:46:40;;;;;;;1.80;1.80;;;;;;;;;;6096388;29;20250;-80
2023/08/02 07:49:44;;;;;;;2.10;2.10;;;;;;;;;;6095795;29;20240;-80
2023/08/02 07:52:49;;;;;;;4.68;1.98;;;;;;;;;;6096037;29;20272;-80
2023/08/02 07:56:01;;;;;;;2.05;1.90;;;;;;;;;;6095956;29;20248;-80
2023/08/02 07:59:04;;;;;;;1.92;1.77;;;;;;;;;;6095488;29;20429;-80
2023/08/02 08:02:10;;;;;;;2.10;2.00;;;;;;;;;;6095759;29;20249;-80
2023/08/02 08:05:14;;;;;;;2.00;1.90;;;;;;;;;;6095758;29;20296;-80
2023/08/02 08:08:18;;;;;;;1.92;1.90;;;;;;;;;;6095536;29;20249;-80
2023/08/02 08:11:21;;;;;;;1.95;1.80;;;;;;;;;;6095693;29;20272;-80
2023/08/02 08:14:42;;;;;;;1.83;1.83;;;;;;;;;;6085543;29;20243;-80
2023/08/02 08:17:47;;;;;;;1.60;1.60;;;;;;;;;;6072079;29;20241;-80
2023/08/02 08:20:55;;;;;;;1.80;1.80;;;;;;;;;;6070543;29;20434;-79
2023/08/02 08:23:58;;;;;;;1.63;1.63;;;;;;;;;;6071885;29;20371;-79
2023/08/02 08:27:02;;;;;;;1.67;1.67;;;;;;;;;;6072076;29;20254;-79
2023/08/02 08:30:07;;;;;;;5.40;2.00;;;;;;;;;;6072239;29;20254;-80
2023/08/02 08:33:12;;;;;;;1.77;1.77;;;;;;;;;;6071977;29;20269;-80
2023/08/02 08:36:16;;;;;;;2.00;2.00;;;;;;;;;;6081496;29;20241;-79
2023/08/02 08:39:20;;;;;;;2.00;2.00;;;;;;;;;;6075394;29;20250;-79
2023/08/02 08:42:24;;;;;;;2.00;2.00;;;;;;;;;;6072218;29;20245;-79
2023/08/02 08:45:28;;;;;;;2.03;1.92;;;;;;;;;;6071792;29;20250;-79
2023/08/02 08:48:33;;;;;;;2.15;2.15;;;;;;;;;;6071186;29;20250;-79
2023/08/02 08:51:40;;;;;;;1.90;1.90;;;;;;;;;;6070955;29;20269;-80
2023/08/02 08:54:45;;;;;;;5.18;1.90;;;;;;;;;;6071585;29;20258;-80
2023/08/02 08:57:50;;;;;;;1.67;1.67;;;;;;;;;;6071435;29;20245;-79
2023/08/02 09:00:55;;;;;;;1.73;1.70;;;;;;;;;;6073999;29;20250;-79
2023/08/02 09:04:00;;;;;;;1.63;1.60;;;;;;;;;;6070082;29;20269;-80
2023/08/02 09:07:04;;;;;;;1.85;1.70;;;;;;;;;;6070612;29;20330;-79
2023/08/02 09:10:09;;;;;;;1.80;1.70;;;;;;;;;;6071439;29;20258;-80
2023/08/02 09:13:21;;;;;;;2.08;2.08;;;;;;;;;;6070763;29;20417;-79
2023/08/02 09:16:25;;;;;;;1.65;1.60;;;;;;;;;;6093840;29;20241;-80
2023/08/02 09:19:32;;;;;;;4.30;1.63;;;;;;;;;;6094264;29;20249;-80
2023/08/02 09:22:36;;;;;;;1.40;1.40;;;;;;;;;;6094517;29;20248;-80
2023/08/02 09:25:40;;;;;;;1.60;1.48;;;;;;;;;;6094339;29;20240;-81
2023/08/02 09:29:00;;;;;;;3.20;2.13;;;;;;;;;;6094541;29;20252;-81
2023/08/02 09:32:08;;;;;;;1.55;1.52;;;;;;;;;;6093865;29;20268;-80
2023/08/02 09:35:14;;;;;;;1.63;1.55;;;;;;;;;;6093808;29;20245;-79
2023/08/02 09:38:18;;;;;;;1.80;1.70;;;;;;;;;;6094167;29;20244;-81
2023/08/02 09:41:23;;;;;;;2.05;1.70;;;;;;;;;;6094029;29;20404;-79
2023/08/02 09:44:54;;;;;;;2.25;1.55;;;;;;;;;;6093958;29;20253;-80
2023/08/02 09:47:58;;;;;;;1.98;1.80;;;;;;;;;;6093590;29;20241;-79
2023/08/02 09:51:03;;;;;;;5.43;1.70;;;;;;;;;;6093449;29;20245;-79
2023/08/02 09:54:08;;;;;;;2.60;1.70;;;;;;;;;;6092175;29;20288;-81
2023/08/02 09:57:12;;;;;;;2.50;1.67;;;;;;;;;;6092475;29;20552;-80
2023/08/02 10:00:18;;;;;;;2.60;1.52;;;;;;;;;;6096307;29;20238;-78
2023/08/02 10:03:23;;;;;;;1.40;1.40;;;;;;;;;;6101206;29;20250;-79
2023/08/02 10:06:33;;;;;;;2.08;1.48;;;;;;;;;;6093350;29;20296;-79
2023/08/02 10:09:37;;;;;;;2.17;2.10;;;;;;;;;;6093119;29;20245;-81
2023/08/02 10:12:41;;;;;;;1.70;1.70;;;;;;;;;;6093423;29;20269;-80
2023/08/02 10:15:48;;;;;;;1.50;1.50;;;;;;;;;;6074900;29;20439;-81
2023/08/02 10:18:53;;;;;;;2.10;1.98;;;;;;;;;;6069766;29;20254;-80
2023/08/02 10:21:59;;;;;;;1.77;1.50;;;;;;;;;;6069213;29;20281;-79
2023/08/02 10:25:03;;;;;;;1.50;1.45;;;;;;;;;;6069759;29;20241;-81
2023/08/02 10:28:08;;;;;;;1.60;1.50;;;;;;;;;;6069940;29;20450;-80
2023/08/02 10:31:12;;;;;;;1.60;1.58;;;;;;;;;;6070243;29;20241;-79
2023/08/02 10:34:46;;;;;;;1.65;1.50;;;;;;;;;;6074124;29;20269;-80
2023/08/02 10:37:53;;;;;;;1.58;1.58;;;;;;;;;;6069818;29;20242;-81
2023/08/02 10:41:04;;;;;;;2.15;1.50;;;;;;;;;;6069456;29;20546;-80
2023/08/02 10:44:14;;;;;;;1.30;1.30;;;;;;;;;;6069797;29;20241;-79
2023/08/02 10:47:25;;;;;;;1.40;1.40;;;;;;;;;;6069529;29;20240;-82
2023/08/02 10:50:48;;;;;;;3.35;1.50;;;;;;;;;;6069918;29;20242;-82
2023/08/02 10:54:13;;;;;;;1.27;1.27;;;;;;;;;;6069389;29;20257;-81
2023/08/02 10:57:17;;;;;;;1.50;1.40;;;;;;;;;;6069751;29;20251;-80
2023/08/02 11:00:23;;;;;;;1.40;1.40;;;;;;;;;;6069628;29;20263;-81
2023/08/02 11:03:29;;;;;;;1.60;1.50;;;;;;;;;;6069247;29;20242;-81
2023/08/02 11:06:33;;;;;;;1.40;1.40;;;;;;;;;;6069461;29;20297;-80
2023/08/02 11:09:40;;;;;;;1.98;1.88;;;;;;;;;;6068361;29;20269;-80
2023/08/02 11:12:52;;;;;;;1.60;1.55;;;;;;;;;;6070540;29;20265;-81
2023/08/02 11:16:03;;;;;;;3.08;1.45;;;;;;;;;;6093372;29;20249;-81
2023/08/02 11:19:09;;;;;;;1.65;1.65;;;;;;;;;;6096995;29;20244;-81
2023/08/02 11:22:14;;;;;;;1.63;1.52;;;;;;;;;;6098980;29;20521;-81
2023/08/02 11:25:20;;;;;;;1.50;1.50;;;;;;;;;;6099483;29;20265;-80
2023/08/02 11:28:27;;;;;;;1.63;1.50;;;;;;;;;;6107119;29;20260;-82
2023/08/02 11:31:31;;;;;;;1.38;1.38;;;;;;;;;;6095608;29;20281;-81
2023/08/02 11:34:39;;;;;;;1.67;1.58;;;;;;;;;;6096911;29;20268;-81
2023/08/02 11:37:43;;;;;;;2.38;1.42;;;;;;;;;;6096892;29;20248;-81
2023/08/02 11:40:48;;;;;;;1.30;1.30;;;;;;;;;;6096533;29;20249;-80
2023/08/02 11:43:52;;;;;;;1.50;1.50;;;;;;;;;;6096457;29;20435;-80
2023/08/02 11:46:57;;;;;;;1.23;1.23;;;;;;;;;;6095186;29;20435;-81
2023/08/02 11:50:00;;;;;;;1.30;1.30;;;;;;;;;;6096215;29;20249;-81
2023/08/02 11:53:05;;;;;;;1.40;1.40;;;;;;;;;;6096073;29;20465;-82
2023/08/02 11:56:11;;;;;;;1.40;1.40;;;;;;;;;;6096326;29;20525;-81
2023/08/02 11:59:15;;;;;;;1.50;1.50;;;;;;;;;;6096551;29;20241;-81
2023/08/02 12:02:26;;;;;;;1.55;1.52;;;;;;;;;;6096035;29;20253;-82
2023/08/02 12:05:30;;;;;;;1.40;1.40;;;;;;;;;;6094818;29;20312;-82
2023/08/02 12:08:33;;;;;;;1.30;1.30;;;;;;;;;;6096189;29;20253;-80
2023/08/02 12:11:39;;;;;;;1.83;1.83;;;;;;;;;;6094502;29;20414;-81
2023/08/02 12:14:43;;;;;;;2.38;1.52;;;;;;;;;;6085519;29;20270;-80
2023/08/02 12:17:47;;;;;;;1.40;1.40;;;;;;;;;;6072735;29;20259;-81
2023/08/02 12:20:51;;;;;;;1.63;1.63;;;;;;;;;;6072608;29;20313;-81
2023/08/02 12:23:55;;;;;;;1.40;1.40;;;;;;;;;;6072021;29;20254;-80
2023/08/02 12:27:14;;;;;;;1.60;1.60;;;;;;;;;;6072059;29;20288;-81
2023/08/02 12:30:18;;;;;;;1.95;1.50;;;;;;;;;;6072407;29;20246;-80
2023/08/02 12:33:22;;;;;;;1.70;1.60;;;;;;;;;;6071256;29;20289;-81
2023/08/02 12:36:27;;;;;;;1.65;1.63;;;;;;;;;;6072212;29;20431;-81
2023/08/02 12:39:31;;;;;;;1.83;1.83;;;;;;;;;;6072328;29;20249;-80
2023/08/02 12:42:36;;;;;;;1.50;1.50;;;;;;;;;;6072506;29;20242;-81
2023/08/02 12:45:55;;;;;;;1.60;1.50;;;;;;;;;;6071779;29;20246;-81
2023/08/02 12:48:59;;;;;;;1.30;1.30;;;;;;;;;;6071957;29;20253;-79
2023/08/02 12:52:03;;;;;;;1.73;1.63;;;;;;;;;;6082746;29;20269;-81
2023/08/02 12:55:08;;;;;;;1.60;1.60;;;;;;;;;;6071926;29;20270;-80
2023/08/02 12:58:13;;;;;;;1.67;1.60;;;;;;;;;;6072008;29;20265;-82
2023/08/02 13:01:17;;;;;;;1.50;1.40;;;;;;;;;;6071734;29;20242;-81
2023/08/02 13:04:21;;;;;;;2.28;1.77;;;;;;;;;;6071585;29;20265;-82
2023/08/02 13:07:25;;;;;;;1.55;1.55;;;;;;;;;;6071645;29;20301;-80
2023/08/02 13:10:45;;;;;;;1.58;1.30;;;;;;;;;;6071143;29;20246;-81
2023/08/02 13:13:51;;;;;;;1.33;1.33;;;;;;;;;;6074312;29;20273;-82
2023/08/02 13:16:56;;;;;;;1.63;1.50;;;;;;;;;;6094275;29;20442;-80
2023/08/02 13:20:00;;;;;;;1.40;1.40;;;;;;;;;;6094526;29;20245;-80
2023/08/02 13:23:04;;;;;;;1.40;1.40;;;;;;;;;;6094171;29;20241;-81
2023/08/02 13:26:08;;;;;;;1.42;1.42;;;;;;;;;;6094333;29;20252;-79
2023/08/02 13:29:13;;;;;;;1.80;1.80;;;;;;;;;;6094073;29;20249;-81
2023/08/02 13:32:17;;;;;;;1.55;1.50;;;;;;;;;;6094053;29;20430;-81
2023/08/02 13:35:20;;;;;;;2.13;1.33;;;;;;;;;;6093282;29;20268;-80
2023/08/02 13:38:24;;;;;;;1.70;1.70;;;;;;;;;;6093736;29;20241;-80
2023/08/02 13:41:28;;;;;;;1.40;1.40;;;;;;;;;;6092848;29;20446;-80
2023/08/02 13:44:33;;;;;;;1.20;1.20;;;;;;;;;;6095478;29;20426;-81
2023/08/02 13:47:37;;;;;;;3.70;1.52;;;;;;;;;;6094032;29;20518;-80
2023/08/02 13:50:41;;;;;;;2.38;1.33;;;;;;;;;;6093591;29;20254;-80
2023/08/02 13:53:45;;;;;;;1.85;1.55;;;;;;;;;;6093705;29;20249;-81
2023/08/02 13:56:49;;;;;;;1.83;1.60;;;;;;;;;;6093370;29;20249;-81
2023/08/02 13:59:54;;;;;;;1.40;1.40;;;;;;;;;;6093705;29;20509;-80
2023/08/02 14:02:57;;;;;;;1.70;1.70;;;;;;;;;;6093123;29;20529;-81
2023/08/02 14:06:03;;;;;;;1.55;1.30;;;;;;;;;;6093242;29;20292;-80
2023/08/02 14:09:07;;;;;;;1.42;1.42;;;;;;;;;;6093379;29;20250;-82
2023/08/02 14:12:14;;;;;;;1.48;1.40;;;;;;;;;;6095920;29;20249;-83
2023/08/02 14:15:20;;;;;;;1.48;1.48;;;;;;;;;;6090743;29;20267;-82
2023/08/02 14:18:24;;;;;;;3.03;1.60;;;;;;;;;;6074386;29;20241;-81
2023/08/02 14:21:28;;;;;;;2.20;1.25;;;;;;;;;;6070174;29;20253;-82
2023/08/02 14:24:31;;;;;;;1.95;1.60;;;;;;;;;;6070492;29;20230;-82
2023/08/02 14:27:35;;;;;;;1.20;1.20;;;;;;;;;;6070312;29;20258;-82
2023/08/02 14:30:40;;;;;;;1.65;1.40;;;;;;;;;;6070172;29;20526;-80
2023/08/02 14:33:44;;;;;;;1.55;1.50;;;;;;;;;;6069715;29;20435;-81
2023/08/02 14:36:48;;;;;;;1.50;1.40;;;;;;;;;;6069842;29;20273;-81
2023/08/02 14:39:52;;;;;;;1.80;1.80;;;;;;;;;;6069749;29;20250;-81
2023/08/02 14:42:55;;;;;;;1.80;1.80;;;;;;;;;;6070108;29;20539;-82
2023/08/02 14:46:00;;;;;;;1.90;1.77;;;;;;;;;;6070037;29;20554;-81
2023/08/02 14:49:06;;;;;;;2.60;1.52;;;;;;;;;;6074847;29;20257;-81
2023/08/02 14:52:11;;;;;;;1.40;1.40;;;;;;;;;;6076180;29;20241;-80
2023/08/02 14:55:18;;;;;;;1.60;1.60;;;;;;;;;;6079797;29;20265;-80
2023/08/02 14:58:21;;;;;;;1.50;1.50;;;;;;;;;;6081261;29;20242;-81
2023/08/02 15:01:26;;;;;;;4.38;1.58;;;;;;;;;;6080789;29;20247;-81
2023/08/02 15:04:30;;;;;;;1.70;1.70;;;;;;;;;;6081507;29;20545;-80
2023/08/02 15:07:34;;;;;;;6.93;1.63;;;;;;;;;;6080978;29;20585;-81
2023/08/02 15:10:38;;;;;;;3.05;1.48;;;;;;;;;;6079957;29;20502;-80
2023/08/02 15:13:42;;;;;;;2.92;1.80;;;;;;;;;;6079692;29;20247;-80
2023/08/02 15:16:48;;;;;;;1.73;1.60;;;;;;;;;;6101980;29;20565;-81
2023/08/02 15:19:51;;;;;;;1.45;1.45;;;;;;;;;;6102611;29;20237;-81
2023/08/02 15:22:55;;;;;;;1.67;1.58;;;;;;;;;;6100278;29;20264;-82
2023/08/02 15:25:59;;;;;;;2.00;1.90;;;;;;;;;;6101508;29;20248;-81
2023/08/02 15:29:03;;;;;;;1.80;1.73;;;;;;;;;;6102263;29;20260;-79
2023/08/02 15:32:08;;;;;;;2.60;1.67;;;;;;;;;;6102891;29;20245;-81
2023/08/02 15:35:13;;;;;;;1.77;1.77;;;;;;;;;;6101691;29;20269;-81
2023/08/02 15:38:16;;;;;;;2.00;1.80;;;;;;;;;;6105003;29;20249;-79
2023/08/02 15:41:20;;;;;;;2.03;1.92;;;;;;;;;;6108667;29;20233;-80
2023/08/02 15:44:24;;;;;;;1.50;1.50;;;;;;;;;;6100078;29;20241;-80
2023/08/02 15:47:29;;;;;;;2.10;1.90;;;;;;;;;;6099884;29;20257;-79
2023/08/02 15:50:34;;;;;;;6.60;2.30;;;;;;;;;;6099544;29;20245;-80
2023/08/02 15:53:38;;;;;;;1.85;1.75;;;;;;;;;;6099178;29;20241;-80
2023/08/02 15:56:42;;;;;;;2.33;1.63;;;;;;;;;;6099305;29;20253;-79
2023/08/02 15:59:47;;;;;;;3.20;1.73;;;;;;;;;;6098913;29;20237;-79
2023/08/02 16:02:52;;;;;;;2.28;2.08;;;;;;;;;;6099151;29;20253;-79
2023/08/02 16:05:56;;;;;;;1.50;1.50;;;;;;;;;;6089011;29;20296;-79
2023/08/02 16:09:02;;;;;;;1.95;1.70;;;;;;;;;;6088285;29;20604;-81
2023/08/02 16:12:07;;;;;;;6.03;1.70;;;;;;;;;;6086314;29;20246;-86
2023/08/02 16:15:11;;;;;;;3.22;1.75;;;;;;;;;;6087585;29;20265;-84
2023/08/02 16:18:16;;;;;;;1.95;1.95;;;;;;;;;;6084585;29;20458;-83
2023/08/02 16:21:22;;;;;;;2.30;2.00;;;;;;;;;;6084858;29;20258;-86
2023/08/02 16:24:26;;;;;;;2.42;1.80;;;;;;;;;;6084676;29;20335;-85
2023/08/02 16:27:30;;;;;;;2.15;1.55;;;;;;;;;;6084120;29;20286;-84
2023/08/02 16:30:34;;;;;;;2.22;1.90;;;;;;;;;;6085076;29;20256;-85
2023/08/02 16:33:39;;;;;;;2.03;1.90;;;;;;;;;;6067453;29;20283;-82
2023/08/02 16:36:43;;;;;;;5.65;2.33;;;;;;;;;;6082916;29;20550;-81
2023/08/02 16:39:48;;;;;;;30.55;3.58;;;;;;;;;;6083248;29;20317;-82
2023/08/02 16:42:52;;;;;;;6.82;2.08;;;;;;;;;;6084693;29;20249;-77
2023/08/02 16:45:55;;;;;;;2.70;1.88;;;;;;;;;;6084741;29;20274;-80
2023/08/02 16:49:01;;;;;;;1.63;1.52;;;;;;;;;;6083022;29;20265;-79
2023/08/02 16:52:05;;;;;;;2.00;1.90;;;;;;;;;;6086789;29;20260;-78
2023/08/02 16:55:10;;;;;;;1.80;1.80;;;;;;;;;;6082133;29;20261;-80
2023/08/02 16:58:14;;;;;;;4.45;1.95;;;;;;;;;;6083481;29;20560;-80
2023/08/02 17:01:18;;;;;;;2.63;2.50;;;;;;;;;;6081263;29;20443;-79
2023/08/02 17:04:23;;;;;;;1.80;1.70;;;;;;;;;;6091856;29;20266;-78
2023/08/02 17:07:27;;;;;;;3.63;3.08;;;;;;;;;;6084552;29;20305;-79
2023/08/02 17:10:32;;;;;;;3.00;2.47;;;;;;;;;;6081432;29;20554;-78
2023/08/02 17:13:37;;;;;;;2.75;1.83;;;;;;;;;;6083471;29;20265;-79
2023/08/02 17:16:41;;;;;;;3.47;2.20;;;;;;;;;;6071601;29;20277;-79
2023/08/02 17:19:47;;;;;;;2.00;1.90;;;;;;;;;;6071267;29;20265;-80
2023/08/02 17:22:51;;;;;;;1.88;1.60;;;;;;;;;;6071145;29;20427;-78
2023/08/02 17:25:55;;;;;;;2.35;1.98;;;;;;;;;;6082280;29;20261;-81
2023/08/02 17:28:59;;;;;;;1.75;1.65;;;;;;;;;;6081870;29;20253;-80
2023/08/02 17:32:02;;;;;;;2.53;2.08;;;;;;;;;;6082989;29;20261;-79
2023/08/02 17:35:08;;;;;;;1.52;1.52;;;;;;;;;;6083073;29;20703;-78
2023/08/02 17:38:12;;;;;;;2.40;2.20;;;;;;;;;;6082205;29;20273;-80
2023/08/02 17:41:19;;;;;;;2.00;1.90;;;;;;;;;;6081561;29;20254;-80
2023/08/02 17:44:23;;;;;;;1.90;1.67;;;;;;;;;;6065690;29;20445;-78
2023/08/02 17:47:27;;;;;;;1.80;1.70;;;;;;;;;;6081582;29;20566;-81
2023/08/02 17:50:32;;;;;;;2.10;1.90;;;;;;;;;;6071034;29;20553;-80
2023/08/02 17:53:36;;;;;;;2.10;1.80;;;;;;;;;;6070816;29;20266;-79
2023/08/02 17:56:39;;;;;;;1.50;1.20;;;;;;;;;;6070683;29;20280;-77
2023/08/02 17:59:43;;;;;;;2.40;1.65;;;;;;;;;;6069622;29;20288;-79
2023/08/02 18:02:47;;;;;;;1.90;1.90;;;;;;;;;;6083017;29;20297;-79
2023/08/02 18:05:52;;;;;;;2.17;1.83;;;;;;;;;;6082055;29;20390;-78
2023/08/02 18:08:56;;;;;;;2.00;2.00;;;;;;;;;;6080911;29;20257;-80
2023/08/02 18:12:00;;;;;;;2.72;1.88;;;;;;;;;;6081625;29;20277;-77
2023/08/02 18:15:04;;;;;;;1.90;1.80;;;;;;;;;;6082842;29;20565;-77
2023/08/02 18:18:08;;;;;;;1.75;1.70;;;;;;;;;;6079401;29;20445;-79
2023/08/02 18:21:13;;;;;;;2.20;2.00;;;;;;;;;;6081305;29;20290;-79
2023/08/02 18:24:18;;;;;;;1.50;1.50;;;;;;;;;;6080691;29;20461;-79
2023/08/02 18:27:22;;;;;;;1.20;1.20;;;;;;;;;;6079117;29;20269;-79
2023/08/02 18:30:25;;;;;;;1.63;1.52;;;;;;;;;;6088196;29;20262;-79